sensor_id;sensor_type;location;lat;lon;timestamp;P1;durP1;ratioP1;P2;durP2;ratioP2
21527;SDS011;10925;49.102;-0.370;2022-08-05T00:00:53;5.63;;;1.15;;
21527;SDS011;10925;49.102;-0.370;2022-08-05T00:03:26;9.07;;;1.67;;
21527;SDS011;10925;49.102;-0.370;2022-08-05T00:05:56;3.65;;;1.27;;
21527;SDS011;10925;49.102;-0.370;2022-08-05T00:08:22;8.98;;;1.65;;
21527;SDS011;10925;49.102;-0.370;2022-08-05T00:11:02;6.68;;;1.63;;
21527;SDS011;10925;49.102;-0.370;2022-08-05T00:13:33;3.53;;;1.33;;
21527;SDS011;10925;49.102;-0.370;2022-08-05T00:16:06;6.65;;;1.35;;
21527;SDS011;10925;49.102;-0.370;2022-08-05T00:18:32;9.38;;;1.50;;
21527;SDS011;10925;49.102;-0.370;2022-08-05T00:20:57;5.72;;;1.33;;
21527;SDS011;10925;49.102;-0.370;2022-08-05T00:23:24;4.72;;;1.38;;
21527;SDS011;10925;49.102;-0.370;2022-08-05T00:25:49;6.30;;;1.33;;
21527;SDS011;10925;49.102;-0.370;2022-08-05T00:28:15;3.72;;;1.50;;
21527;SDS011;10925;49.102;-0.370;2022-08-05T00:30:40;6.53;;;1.50;;
21527;SDS011;10925;49.102;-0.370;2022-08-05T00:33:06;3.97;;;1.50;;
21527;SDS011;10925;49.102;-0.370;2022-08-05T00:35:31;4.97;;;1.60;;
21527;SDS011;10925;49.102;-0.370;2022-08-05T00:37:59;3.53;;;1.30;;
21527;SDS011;10925;49.102;-0.370;2022-08-05T00:40:24;5.60;;;1.83;;
21527;SDS011;10925;49.102;-0.370;2022-08-05T00:42:50;7.65;;;1.55;;
21527;SDS011;10925;49.102;-0.370;2022-08-05T00:45:17;2.50;;;1.40;;
21527;SDS011;10925;49.102;-0.370;2022-08-05T00:48:03;8.13;;;1.65;;
21527;SDS011;10925;49.102;-0.370;2022-08-05T00:50:31;6.43;;;2.00;;
21527;SDS011;10925;49.102;-0.370;2022-08-05T00:52:56;5.22;;;1.20;;
21527;SDS011;10925;49.102;-0.370;2022-08-05T00:55:23;7.60;;;1.20;;
21527;SDS011;10925;49.102;-0.370;2022-08-05T00:58:12;8.40;;;1.52;;
21527;SDS011;10925;49.102;-0.370;2022-08-05T01:00:39;6.00;;;1.20;;
21527;SDS011;10925;49.102;-0.370;2022-08-05T01:03:07;6.90;;;1.48;;
21527;SDS011;10925;49.102;-0.370;2022-08-05T01:05:34;4.00;;;1.30;;
21527;SDS011;10925;49.102;-0.370;2022-08-05T01:08:00;5.13;;;1.40;;
21527;SDS011;10925;49.102;-0.370;2022-08-05T01:10:53;6.93;;;1.40;;
21527;SDS011;10925;49.102;-0.370;2022-08-05T01:19:23;3.50;;;1.13;;
21527;SDS011;10925;49.102;-0.370;2022-08-05T01:30:21;8.23;;;1.45;;
21527;SDS011;10925;49.102;-0.370;2022-08-05T01:33:01;6.70;;;1.35;;
21527;SDS011;10925;49.102;-0.370;2022-08-05T01:35:29;6.35;;;1.52;;
21527;SDS011;10925;49.102;-0.370;2022-08-05T01:37:55;3.95;;;1.20;;
21527;SDS011;10925;49.102;-0.370;2022-08-05T01:40:26;3.90;;;1.38;;
21527;SDS011;10925;49.102;-0.370;2022-08-05T01:42:53;5.45;;;1.73;;
21527;SDS011;10925;49.102;-0.370;2022-08-05T01:45:21;6.30;;;1.33;;
21527;SDS011;10925;49.102;-0.370;2022-08-05T01:47:50;4.57;;;1.33;;
21527;SDS011;10925;49.102;-0.370;2022-08-05T01:50:23;3.88;;;1.40;;
21527;SDS011;10925;49.102;-0.370;2022-08-05T01:52:55;5.85;;;1.25;;
21527;SDS011;10925;49.102;-0.370;2022-08-05T01:55:24;5.57;;;1.35;;
21527;SDS011;10925;49.102;-0.370;2022-08-05T01:57:52;5.45;;;1.30;;
21527;SDS011;10925;49.102;-0.370;2022-08-05T02:00:41;2.20;;;1.20;;
21527;SDS011;10925;49.102;-0.370;2022-08-05T02:03:10;5.85;;;1.65;;
21527;SDS011;10925;49.102;-0.370;2022-08-05T02:05:50;9.55;;;1.90;;
21527;SDS011;10925;49.102;-0.370;2022-08-05T02:08:20;4.35;;;1.25;;
21527;SDS011;10925;49.102;-0.370;2022-08-05T02:11:07;4.07;;;1.48;;
21527;SDS011;10925;49.102;-0.370;2022-08-05T02:13:40;6.38;;;1.48;;
21527;SDS011;10925;49.102;-0.370;2022-08-05T02:18:55;6.43;;;1.38;;
21527;SDS011;10925;49.102;-0.370;2022-08-05T02:21:25;5.55;;;1.40;;
21527;SDS011;10925;49.102;-0.370;2022-08-05T02:23:56;5.00;;;1.30;;
21527;SDS011;10925;49.102;-0.370;2022-08-05T02:26:26;6.40;;;1.52;;
21527;SDS011;10925;49.102;-0.370;2022-08-05T02:28:54;4.80;;;1.52;;
21527;SDS011;10925;49.102;-0.370;2022-08-05T02:31:25;8.73;;;1.40;;
21527;SDS011;10925;49.102;-0.370;2022-08-05T02:33:54;6.50;;;2.03;;
21527;SDS011;10925;49.102;-0.370;2022-08-05T02:36:24;8.45;;;2.03;;
21527;SDS011;10925;49.102;-0.370;2022-08-05T02:38:53;4.07;;;1.40;;
21527;SDS011;10925;49.102;-0.370;2022-08-05T02:41:20;4.60;;;1.48;;
21527;SDS011;10925;49.102;-0.370;2022-08-05T02:43:49;10.15;;;1.55;;
21527;SDS011;10925;49.102;-0.370;2022-08-05T02:46:32;8.63;;;1.40;;
21527;SDS011;10925;49.102;-0.370;2022-08-05T02:48:58;5.38;;;1.52;;
21527;SDS011;10925;49.102;-0.370;2022-08-05T02:51:24;5.05;;;1.45;;
21527;SDS011;10925;49.102;-0.370;2022-08-05T02:53:50;4.75;;;1.60;;
21527;SDS011;10925;49.102;-0.370;2022-08-05T02:56:15;3.63;;;1.58;;
21527;SDS011;10925;49.102;-0.370;2022-08-05T02:58:44;5.63;;;1.65;;
21527;SDS011;10925;49.102;-0.370;2022-08-05T03:01:18;8.50;;;1.98;;
21527;SDS011;10925;49.102;-0.370;2022-08-05T03:03:47;7.53;;;1.30;;
21527;SDS011;10925;49.102;-0.370;2022-08-05T03:06:28;4.30;;;1.45;;
21527;SDS011;10925;49.102;-0.370;2022-08-05T03:08:54;9.00;;;1.90;;
21527;SDS011;10925;49.102;-0.370;2022-08-05T03:11:21;7.05;;;2.10;;
21527;SDS011;10925;49.102;-0.370;2022-08-05T03:14:08;6.10;;;1.92;;
21527;SDS011;10925;49.102;-0.370;2022-08-05T03:16:39;8.07;;;2.05;;
21527;SDS011;10925;49.102;-0.370;2022-08-05T03:19:05;8.05;;;1.55;;
21527;SDS011;10925;49.102;-0.370;2022-08-05T03:21:52;5.80;;;1.63;;
21527;SDS011;10925;49.102;-0.370;2022-08-05T03:24:19;8.18;;;1.63;;
21527;SDS011;10925;49.102;-0.370;2022-08-05T03:26:56;6.70;;;1.90;;
21527;SDS011;10925;49.102;-0.370;2022-08-05T03:29:22;5.85;;;1.73;;
21527;SDS011;10925;49.102;-0.370;2022-08-05T03:31:49;7.57;;;1.75;;
21527;SDS011;10925;49.102;-0.370;2022-08-05T03:34:21;8.90;;;2.03;;
21527;SDS011;10925;49.102;-0.370;2022-08-05T03:36:47;8.38;;;1.80;;
21527;SDS011;10925;49.102;-0.370;2022-08-05T03:39:12;10.50;;;2.28;;
21527;SDS011;10925;49.102;-0.370;2022-08-05T03:41:38;10.73;;;2.00;;
21527;SDS011;10925;49.102;-0.370;2022-08-05T03:44:12;15.13;;;2.58;;
21527;SDS011;10925;49.102;-0.370;2022-08-05T03:46:45;8.65;;;2.10;;
21527;SDS011;10925;49.102;-0.370;2022-08-05T03:49:12;5.55;;;2.13;;
21527;SDS011;10925;49.102;-0.370;2022-08-05T03:51:51;7.45;;;1.77;;
21527;SDS011;10925;49.102;-0.370;2022-08-05T03:54:20;7.75;;;1.95;;
21527;SDS011;10925;49.102;-0.370;2022-08-05T03:57:08;6.60;;;1.83;;
21527;SDS011;10925;49.102;-0.370;2022-08-05T03:59:48;10.20;;;1.75;;
21527;SDS011;10925;49.102;-0.370;2022-08-05T04:02:22;7.50;;;1.98;;
21527;SDS011;10925;49.102;-0.370;2022-08-05T04:05:04;9.73;;;1.98;;
21527;SDS011;10925;49.102;-0.370;2022-08-05T04:07:35;7.10;;;1.80;;
21527;SDS011;10925;49.102;-0.370;2022-08-05T04:10:02;8.30;;;2.03;;
21527;SDS011;10925;49.102;-0.370;2022-08-05T04:12:28;8.52;;;1.83;;
21527;SDS011;10925;49.102;-0.370;2022-08-05T04:14:56;7.40;;;2.10;;
21527;SDS011;10925;49.102;-0.370;2022-08-05T04:17:25;8.32;;;2.22;;
21527;SDS011;10925;49.102;-0.370;2022-08-05T04:25:03;10.73;;;2.05;;
21527;SDS011;10925;49.102;-0.370;2022-08-05T04:27:30;10.23;;;2.40;;
21527;SDS011;10925;49.102;-0.370;2022-08-05T04:30:09;11.88;;;2.33;;
21527;SDS011;10925;49.102;-0.370;2022-08-05T04:32:34;9.25;;;2.05;;
21527;SDS011;10925;49.102;-0.370;2022-08-05T04:35:03;8.63;;;2.58;;
21527;SDS011;10925;49.102;-0.370;2022-08-05T04:37:31;5.78;;;1.92;;
21527;SDS011;10925;49.102;-0.370;2022-08-05T04:40:18;7.97;;;2.22;;
21527;SDS011;10925;49.102;-0.370;2022-08-05T04:42:45;9.98;;;2.20;;
21527;SDS011;10925;49.102;-0.370;2022-08-05T04:45:10;6.78;;;1.75;;
21527;SDS011;10925;49.102;-0.370;2022-08-05T04:47:36;9.40;;;2.17;;
21527;SDS011;10925;49.102;-0.370;2022-08-05T04:50:12;9.18;;;1.70;;
21527;SDS011;10925;49.102;-0.370;2022-08-05T04:52:59;7.40;;;2.00;;
21527;SDS011;10925;49.102;-0.370;2022-08-05T04:55:26;10.10;;;2.40;;
21527;SDS011;10925;49.102;-0.370;2022-08-05T04:58:14;16.20;;;2.72;;
21527;SDS011;10925;49.102;-0.370;2022-08-05T05:00:46;13.07;;;2.58;;
21527;SDS011;10925;49.102;-0.370;2022-08-05T05:03:12;9.85;;;2.38;;
21527;SDS011;10925;49.102;-0.370;2022-08-05T05:05:37;10.40;;;2.22;;
21527;SDS011;10925;49.102;-0.370;2022-08-05T05:08:07;10.10;;;2.20;;
21527;SDS011;10925;49.102;-0.370;2022-08-05T05:10:37;11.15;;;2.08;;
21527;SDS011;10925;49.102;-0.370;2022-08-05T05:13:03;12.70;;;1.63;;
21527;SDS011;10925;49.102;-0.370;2022-08-05T05:15:28;10.20;;;2.50;;
21527;SDS011;10925;49.102;-0.370;2022-08-05T05:17:54;11.70;;;2.30;;
21527;SDS011;10925;49.102;-0.370;2022-08-05T05:20:19;11.10;;;2.05;;
21527;SDS011;10925;49.102;-0.370;2022-08-05T05:22:49;11.55;;;2.40;;
21527;SDS011;10925;49.102;-0.370;2022-08-05T05:25:14;11.07;;;2.00;;
21527;SDS011;10925;49.102;-0.370;2022-08-05T05:27:40;10.43;;;1.95;;
21527;SDS011;10925;49.102;-0.370;2022-08-05T05:30:06;11.25;;;2.20;;
21527;SDS011;10925;49.102;-0.370;2022-08-05T05:32:31;7.28;;;2.28;;
21527;SDS011;10925;49.102;-0.370;2022-08-05T05:35:00;9.40;;;1.95;;
21527;SDS011;10925;49.102;-0.370;2022-08-05T05:37:28;10.02;;;2.13;;
21527;SDS011;10925;49.102;-0.370;2022-08-05T05:39:54;10.10;;;2.10;;
21527;SDS011;10925;49.102;-0.370;2022-08-05T05:42:19;10.32;;;2.00;;
21527;SDS011;10925;49.102;-0.370;2022-08-05T05:44:45;10.55;;;2.47;;
21527;SDS011;10925;49.102;-0.370;2022-08-05T05:47:10;7.13;;;1.90;;
21527;SDS011;10925;49.102;-0.370;2022-08-05T05:49:36;6.30;;;2.03;;
21527;SDS011;10925;49.102;-0.370;2022-08-05T05:52:01;9.85;;;1.85;;
21527;SDS011;10925;49.102;-0.370;2022-08-05T05:54:27;6.90;;;2.00;;
21527;SDS011;10925;49.102;-0.370;2022-08-05T05:56:52;9.32;;;2.05;;
21527;SDS011;10925;49.102;-0.370;2022-08-05T05:59:19;5.65;;;1.60;;
21527;SDS011;10925;49.102;-0.370;2022-08-05T06:01:45;6.85;;;1.60;;
21527;SDS011;10925;49.102;-0.370;2022-08-05T06:04:11;10.50;;;1.90;;
21527;SDS011;10925;49.102;-0.370;2022-08-05T06:06:37;9.85;;;2.05;;
21527;SDS011;10925;49.102;-0.370;2022-08-05T06:09:03;7.38;;;1.38;;
21527;SDS011;10925;49.102;-0.370;2022-08-05T06:11:30;8.88;;;1.55;;
21527;SDS011;10925;49.102;-0.370;2022-08-05T06:13:57;10.05;;;1.58;;
21527;SDS011;10925;49.102;-0.370;2022-08-05T06:16:26;6.22;;;1.60;;
21527;SDS011;10925;49.102;-0.370;2022-08-05T06:19:03;8.82;;;1.98;;
21527;SDS011;10925;49.102;-0.370;2022-08-05T06:21:33;10.25;;;1.40;;
21527;SDS011;10925;49.102;-0.370;2022-08-05T06:23:59;6.82;;;1.63;;
21527;SDS011;10925;49.102;-0.370;2022-08-05T06:26:24;15.13;;;2.30;;
21527;SDS011;10925;49.102;-0.370;2022-08-05T06:28:50;12.95;;;1.92;;
21527;SDS011;10925;49.102;-0.370;2022-08-05T06:31:17;12.88;;;2.05;;
21527;SDS011;10925;49.102;-0.370;2022-08-05T06:33:47;8.75;;;1.73;;
21527;SDS011;10925;49.102;-0.370;2022-08-05T06:36:31;5.93;;;1.70;;
21527;SDS011;10925;49.102;-0.370;2022-08-05T06:38:57;9.35;;;2.17;;
21527;SDS011;10925;49.102;-0.370;2022-08-05T06:41:22;9.63;;;2.00;;
21527;SDS011;10925;49.102;-0.370;2022-08-05T06:43:50;5.53;;;1.92;;
21527;SDS011;10925;49.102;-0.370;2022-08-05T06:46:26;9.98;;;1.58;;
21527;SDS011;10925;49.102;-0.370;2022-08-05T06:48:56;15.32;;;2.20;;
21527;SDS011;10925;49.102;-0.370;2022-08-05T06:51:24;10.40;;;2.00;;
21527;SDS011;10925;49.102;-0.370;2022-08-05T06:53:56;12.73;;;2.22;;
21527;SDS011;10925;49.102;-0.370;2022-08-05T06:56:23;10.13;;;1.88;;
21527;SDS011;10925;49.102;-0.370;2022-08-05T06:58:52;9.57;;;2.03;;
21527;SDS011;10925;49.102;-0.370;2022-08-05T07:01:19;6.57;;;2.03;;
21527;SDS011;10925;49.102;-0.370;2022-08-05T07:03:45;14.05;;;1.90;;
21527;SDS011;10925;49.102;-0.370;2022-08-05T07:06:10;10.18;;;1.45;;
21527;SDS011;10925;49.102;-0.370;2022-08-05T07:08:41;11.85;;;1.77;;
21527;SDS011;10925;49.102;-0.370;2022-08-05T07:11:07;12.55;;;2.00;;
21527;SDS011;10925;49.102;-0.370;2022-08-05T07:13:33;10.07;;;1.92;;
21527;SDS011;10925;49.102;-0.370;2022-08-05T07:16:17;10.98;;;1.88;;
21527;SDS011;10925;49.102;-0.370;2022-08-05T07:19:01;10.40;;;1.73;;
21527;SDS011;10925;49.102;-0.370;2022-08-05T07:21:27;5.70;;;1.52;;
21527;SDS011;10925;49.102;-0.370;2022-08-05T07:23:52;9.23;;;1.90;;
21527;SDS011;10925;49.102;-0.370;2022-08-05T07:26:18;8.68;;;1.90;;
21527;SDS011;10925;49.102;-0.370;2022-08-05T07:28:51;6.38;;;1.50;;
21527;SDS011;10925;49.102;-0.370;2022-08-05T07:31:18;9.52;;;1.60;;
21527;SDS011;10925;49.102;-0.370;2022-08-05T07:34:05;4.60;;;1.05;;
21527;SDS011;10925;49.102;-0.370;2022-08-05T07:36:33;5.32;;;1.35;;
21527;SDS011;10925;49.102;-0.370;2022-08-05T07:38:59;10.10;;;2.00;;
21527;SDS011;10925;49.102;-0.370;2022-08-05T07:41:31;6.78;;;1.95;;
21527;SDS011;10925;49.102;-0.370;2022-08-05T07:44:18;9.60;;;1.80;;
21527;SDS011;10925;49.102;-0.370;2022-08-05T07:46:47;12.65;;;2.05;;
21527;SDS011;10925;49.102;-0.370;2022-08-05T07:49:15;7.93;;;1.45;;
21527;SDS011;10925;49.102;-0.370;2022-08-05T07:51:43;8.68;;;1.60;;
21527;SDS011;10925;49.102;-0.370;2022-08-05T07:54:09;12.48;;;1.90;;
21527;SDS011;10925;49.102;-0.370;2022-08-05T07:56:34;7.70;;;1.63;;
21527;SDS011;10925;49.102;-0.370;2022-08-05T07:59:00;7.82;;;1.70;;
21527;SDS011;10925;49.102;-0.370;2022-08-05T08:01:25;10.45;;;2.03;;
21527;SDS011;10925;49.102;-0.370;2022-08-05T08:03:55;9.35;;;1.40;;
21527;SDS011;10925;49.102;-0.370;2022-08-05T08:06:22;10.82;;;1.92;;
21527;SDS011;10925;49.102;-0.370;2022-08-05T08:08:48;10.27;;;1.60;;
21527;SDS011;10925;49.102;-0.370;2022-08-05T08:11:17;11.88;;;1.90;;
21527;SDS011;10925;49.102;-0.370;2022-08-05T08:13:53;11.07;;;2.03;;
21527;SDS011;10925;49.102;-0.370;2022-08-05T08:16:18;6.43;;;1.42;;
21527;SDS011;10925;49.102;-0.370;2022-08-05T08:18:44;6.38;;;2.10;;
21527;SDS011;10925;49.102;-0.370;2022-08-05T08:21:15;9.43;;;1.80;;
21527;SDS011;10925;49.102;-0.370;2022-08-05T08:23:43;8.93;;;1.85;;
21527;SDS011;10925;49.102;-0.370;2022-08-05T08:26:30;14.75;;;2.30;;
21527;SDS011;10925;49.102;-0.370;2022-08-05T08:28:59;19.27;;;2.03;;
21527;SDS011;10925;49.102;-0.370;2022-08-05T08:31:46;4.63;;;1.27;;
21527;SDS011;10925;49.102;-0.370;2022-08-05T08:34:12;12.27;;;2.50;;
21527;SDS011;10925;49.102;-0.370;2022-08-05T08:36:38;12.48;;;2.42;;
21527;SDS011;10925;49.102;-0.370;2022-08-05T08:39:17;8.98;;;1.98;;
21527;SDS011;10925;49.102;-0.370;2022-08-05T08:41:44;9.93;;;1.85;;
21527;SDS011;10925;49.102;-0.370;2022-08-05T08:44:12;16.63;;;2.33;;
21527;SDS011;10925;49.102;-0.370;2022-08-05T08:47:00;7.75;;;2.17;;
21527;SDS011;10925;49.102;-0.370;2022-08-05T08:49:26;11.18;;;2.28;;
21527;SDS011;10925;49.102;-0.370;2022-08-05T08:51:53;9.50;;;2.13;;
21527;SDS011;10925;49.102;-0.370;2022-08-05T08:54:23;7.95;;;1.52;;
21527;SDS011;10925;49.102;-0.370;2022-08-05T08:56:48;12.20;;;2.05;;
21527;SDS011;10925;49.102;-0.370;2022-08-05T08:59:18;7.00;;;1.52;;
21527;SDS011;10925;49.102;-0.370;2022-08-05T09:01:46;6.63;;;1.50;;
21527;SDS011;10925;49.102;-0.370;2022-08-05T09:04:23;15.27;;;1.80;;
21527;SDS011;10925;49.102;-0.370;2022-08-05T09:06:56;13.55;;;2.33;;
21527;SDS011;10925;49.102;-0.370;2022-08-05T09:09:22;7.95;;;1.63;;
21527;SDS011;10925;49.102;-0.370;2022-08-05T09:11:47;9.45;;;1.80;;
21527;SDS011;10925;49.102;-0.370;2022-08-05T09:14:13;3.38;;;1.42;;
21527;SDS011;10925;49.102;-0.370;2022-08-05T09:16:38;8.52;;;1.58;;
21527;SDS011;10925;49.102;-0.370;2022-08-05T09:19:14;12.50;;;2.13;;
21527;SDS011;10925;49.102;-0.370;2022-08-05T09:21:39;9.50;;;2.00;;
21527;SDS011;10925;49.102;-0.370;2022-08-05T09:24:06;8.30;;;1.60;;
21527;SDS011;10925;49.102;-0.370;2022-08-05T09:26:34;11.00;;;1.88;;
21527;SDS011;10925;49.102;-0.370;2022-08-05T09:29:03;5.55;;;1.25;;
21527;SDS011;10925;49.102;-0.370;2022-08-05T09:31:30;7.55;;;1.80;;
21527;SDS011;10925;49.102;-0.370;2022-08-05T09:33:57;8.63;;;1.55;;
21527;SDS011;10925;49.102;-0.370;2022-08-05T09:36:23;5.60;;;1.67;;
21527;SDS011;10925;49.102;-0.370;2022-08-05T09:38:56;8.32;;;1.52;;
21527;SDS011;10925;49.102;-0.370;2022-08-05T09:41:22;5.80;;;2.10;;
21527;SDS011;10925;49.102;-0.370;2022-08-05T09:43:47;5.45;;;1.20;;
21527;SDS011;10925;49.102;-0.370;2022-08-05T09:46:23;7.20;;;1.30;;
21527;SDS011;10925;49.102;-0.370;2022-08-05T09:48:50;10.52;;;1.65;;
21527;SDS011;10925;49.102;-0.370;2022-08-05T09:51:27;6.85;;;1.67;;
21527;SDS011;10925;49.102;-0.370;2022-08-05T09:56:24;2.37;;;1.00;;
21527;SDS011;10925;49.102;-0.370;2022-08-05T09:58:57;8.88;;;1.30;;
21527;SDS011;10925;49.102;-0.370;2022-08-05T10:01:23;3.92;;;1.27;;
21527;SDS011;10925;49.102;-0.370;2022-08-05T10:03:59;4.07;;;1.05;;
21527;SDS011;10925;49.102;-0.370;2022-08-05T10:06:29;7.25;;;1.63;;
21527;SDS011;10925;49.102;-0.370;2022-08-05T10:09:10;8.90;;;1.42;;
21527;SDS011;10925;49.102;-0.370;2022-08-05T10:11:54;10.23;;;1.27;;
21527;SDS011;10925;49.102;-0.370;2022-08-05T10:16:50;4.57;;;1.00;;
21527;SDS011;10925;49.102;-0.370;2022-08-05T10:19:15;5.45;;;1.17;;
21527;SDS011;10925;49.102;-0.370;2022-08-05T10:21:41;14.23;;;1.52;;
21527;SDS011;10925;49.102;-0.370;2022-08-05T10:24:07;11.48;;;1.20;;
21527;SDS011;10925;49.102;-0.370;2022-08-05T10:26:36;3.58;;;0.93;;
21527;SDS011;10925;49.102;-0.370;2022-08-05T10:29:17;6.72;;;0.98;;
21527;SDS011;10925;49.102;-0.370;2022-08-05T10:31:44;7.40;;;1.67;;
21527;SDS011;10925;49.102;-0.370;2022-08-05T10:34:09;6.20;;;1.27;;
21527;SDS011;10925;49.102;-0.370;2022-08-05T10:36:37;3.60;;;1.02;;
21527;SDS011;10925;49.102;-0.370;2022-08-05T10:39:38;7.90;;;1.30;;
21527;SDS011;10925;49.102;-0.370;2022-08-05T10:42:20;4.00;;;1.17;;
21527;SDS011;10925;49.102;-0.370;2022-08-05T10:44:59;4.75;;;1.10;;
21527;SDS011;10925;49.102;-0.370;2022-08-05T10:47:33;5.90;;;1.30;;
21527;SDS011;10925;49.102;-0.370;2022-08-05T10:50:08;2.55;;;0.82;;
21527;SDS011;10925;49.102;-0.370;2022-08-05T10:52:38;3.65;;;1.10;;
21527;SDS011;10925;49.102;-0.370;2022-08-05T10:55:06;3.47;;;0.88;;
21527;SDS011;10925;49.102;-0.370;2022-08-05T10:57:32;8.18;;;1.17;;
21527;SDS011;10925;49.102;-0.370;2022-08-05T11:00:19;3.53;;;1.02;;
21527;SDS011;10925;49.102;-0.370;2022-08-05T11:06:01;4.22;;;1.00;;
21527;SDS011;10925;49.102;-0.370;2022-08-05T11:08:26;7.32;;;1.00;;
21527;SDS011;10925;49.102;-0.370;2022-08-05T11:13:47;4.70;;;1.00;;
21527;SDS011;10925;49.102;-0.370;2022-08-05T11:16:20;2.75;;;0.60;;
21527;SDS011;10925;49.102;-0.370;2022-08-05T11:18:45;3.40;;;1.00;;
21527;SDS011;10925;49.102;-0.370;2022-08-05T11:21:33;5.05;;;1.40;;
21527;SDS011;10925;49.102;-0.370;2022-08-05T11:24:01;2.22;;;0.63;;
21527;SDS011;10925;49.102;-0.370;2022-08-05T11:26:31;3.83;;;0.70;;
21527;SDS011;10925;49.102;-0.370;2022-08-05T11:28:57;2.22;;;0.70;;
21527;SDS011;10925;49.102;-0.370;2022-08-05T11:31:23;3.53;;;0.60;;
21527;SDS011;10925;49.102;-0.370;2022-08-05T11:33:53;1.75;;;0.57;;
21527;SDS011;10925;49.102;-0.370;2022-08-05T11:39:08;5.33;;;0.87;;
21527;SDS011;10925;49.102;-0.370;2022-08-05T11:41:35;7.13;;;0.80;;
21527;SDS011;10925;49.102;-0.370;2022-08-05T11:44:22;2.85;;;1.05;;
21527;SDS011;10925;49.102;-0.370;2022-08-05T11:46:49;4.78;;;0.95;;
21527;SDS011;10925;49.102;-0.370;2022-08-05T11:49:15;6.20;;;1.00;;
21527;SDS011;10925;49.102;-0.370;2022-08-05T11:51:43;5.90;;;0.98;;
21527;SDS011;10925;49.102;-0.370;2022-08-05T11:54:22;7.00;;;0.70;;
21527;SDS011;10925;49.102;-0.370;2022-08-05T11:56:59;5.57;;;0.88;;
21527;SDS011;10925;49.102;-0.370;2022-08-05T11:59:27;4.40;;;0.82;;
21527;SDS011;10925;49.102;-0.370;2022-08-05T12:01:53;2.53;;;0.88;;
21527;SDS011;10925;49.102;-0.370;2022-08-05T12:04:19;4.53;;;0.95;;
21527;SDS011;10925;49.102;-0.370;2022-08-05T12:06:47;2.92;;;0.55;;
21527;SDS011;10925;49.102;-0.370;2022-08-05T12:09:17;4.85;;;1.00;;
21527;SDS011;10925;49.102;-0.370;2022-08-05T12:11:45;5.60;;;0.88;;
21527;SDS011;10925;49.102;-0.370;2022-08-05T12:14:11;2.42;;;0.93;;
21527;SDS011;10925;49.102;-0.370;2022-08-05T12:16:42;6.05;;;1.23;;
21527;SDS011;10925;49.102;-0.370;2022-08-05T12:19:11;5.20;;;1.33;;
21527;SDS011;10925;49.102;-0.370;2022-08-05T12:21:55;8.18;;;1.10;;
21527;SDS011;10925;49.102;-0.370;2022-08-05T12:24:21;4.30;;;1.08;;
21527;SDS011;10925;49.102;-0.370;2022-08-05T12:26:48;7.63;;;1.02;;
21527;SDS011;10925;49.102;-0.370;2022-08-05T12:29:19;5.60;;;1.15;;
21527;SDS011;10925;49.102;-0.370;2022-08-05T12:31:52;3.28;;;0.98;;
21527;SDS011;10925;49.102;-0.370;2022-08-05T12:34:19;2.33;;;0.73;;
21527;SDS011;10925;49.102;-0.370;2022-08-05T12:36:45;2.17;;;0.80;;
21527;SDS011;10925;49.102;-0.370;2022-08-05T12:39:12;6.15;;;1.20;;
21527;SDS011;10925;49.102;-0.370;2022-08-05T12:41:38;1.27;;;0.70;;
21527;SDS011;10925;49.102;-0.370;2022-08-05T12:44:05;4.85;;;1.10;;
21527;SDS011;10925;49.102;-0.370;2022-08-05T12:46:37;3.45;;;0.77;;
21527;SDS011;10925;49.102;-0.370;2022-08-05T12:49:10;2.20;;;0.80;;
21527;SDS011;10925;49.102;-0.370;2022-08-05T12:51:54;4.03;;;0.80;;
21527;SDS011;10925;49.102;-0.370;2022-08-05T12:54:41;5.43;;;0.75;;
21527;SDS011;10925;49.102;-0.370;2022-08-05T12:57:10;2.38;;;0.70;;
21527;SDS011;10925;49.102;-0.370;2022-08-05T12:59:42;3.50;;;1.10;;
21527;SDS011;10925;49.102;-0.370;2022-08-05T13:02:29;3.97;;;0.77;;
21527;SDS011;10925;49.102;-0.370;2022-08-05T13:04:55;5.57;;;0.70;;
21527;SDS011;10925;49.102;-0.370;2022-08-05T13:07:22;2.45;;;0.60;;
21527;SDS011;10925;49.102;-0.370;2022-08-05T13:10:10;3.25;;;1.00;;
21527;SDS011;10925;49.102;-0.370;2022-08-05T13:12:39;5.47;;;1.00;;
21527;SDS011;10925;49.102;-0.370;2022-08-05T13:15:17;3.22;;;0.93;;
21527;SDS011;10925;49.102;-0.370;2022-08-05T13:17:53;1.25;;;0.52;;
21527;SDS011;10925;49.102;-0.370;2022-08-05T13:20:32;3.38;;;0.90;;
21527;SDS011;10925;49.102;-0.370;2022-08-05T13:23:19;2.13;;;0.95;;
21527;SDS011;10925;49.102;-0.370;2022-08-05T13:25:48;6.15;;;0.88;;
21527;SDS011;10925;49.102;-0.370;2022-08-05T13:28:24;4.82;;;0.80;;
21527;SDS011;10925;49.102;-0.370;2022-08-05T13:30:49;4.18;;;0.80;;
21527;SDS011;10925;49.102;-0.370;2022-08-05T13:33:19;3.85;;;0.85;;
21527;SDS011;10925;49.102;-0.370;2022-08-05T13:36:06;4.85;;;1.00;;
21527;SDS011;10925;49.102;-0.370;2022-08-05T13:38:35;2.22;;;0.73;;
21527;SDS011;10925;49.102;-0.370;2022-08-05T13:41:08;5.65;;;0.88;;
21527;SDS011;10925;49.102;-0.370;2022-08-05T13:43:33;3.70;;;0.70;;
21527;SDS011;10925;49.102;-0.370;2022-08-05T13:46:20;5.20;;;0.73;;
21527;SDS011;10925;49.102;-0.370;2022-08-05T13:49:07;5.43;;;0.90;;
21527;SDS011;10925;49.102;-0.370;2022-08-05T13:51:37;2.70;;;1.10;;
21527;SDS011;10925;49.102;-0.370;2022-08-05T13:54:09;4.80;;;0.88;;
21527;SDS011;10925;49.102;-0.370;2022-08-05T13:56:39;2.28;;;0.82;;
21527;SDS011;10925;49.102;-0.370;2022-08-05T13:59:17;5.90;;;1.35;;
21527;SDS011;10925;49.102;-0.370;2022-08-05T14:01:47;3.83;;;0.60;;
21527;SDS011;10925;49.102;-0.370;2022-08-05T14:04:12;2.63;;;0.85;;
21527;SDS011;10925;49.102;-0.370;2022-08-05T14:06:58;7.63;;;1.00;;
21527;SDS011;10925;49.102;-0.370;2022-08-05T14:09:40;4.47;;;0.60;;
21527;SDS011;10925;49.102;-0.370;2022-08-05T14:12:06;3.10;;;0.80;;
21527;SDS011;10925;49.102;-0.370;2022-08-05T14:14:43;4.50;;;1.00;;
21527;SDS011;10925;49.102;-0.370;2022-08-05T14:17:10;2.50;;;0.60;;
21527;SDS011;10925;49.102;-0.370;2022-08-05T14:19:36;2.38;;;0.60;;
21527;SDS011;10925;49.102;-0.370;2022-08-05T14:22:01;3.35;;;0.75;;
21527;SDS011;10925;49.102;-0.370;2022-08-05T14:24:37;5.55;;;1.42;;
21527;SDS011;10925;49.102;-0.370;2022-08-05T14:27:05;5.15;;;0.88;;
21527;SDS011;10925;49.102;-0.370;2022-08-05T14:29:43;2.08;;;0.75;;
21527;SDS011;10925;49.102;-0.370;2022-08-05T14:35:14;5.22;;;1.00;;
21527;SDS011;10925;49.102;-0.370;2022-08-05T14:37:40;3.58;;;0.85;;
21527;SDS011;10925;49.102;-0.370;2022-08-05T14:40:14;8.15;;;0.95;;
21527;SDS011;10925;49.102;-0.370;2022-08-05T14:42:42;4.90;;;0.77;;
21527;SDS011;10925;49.102;-0.370;2022-08-05T14:45:09;6.00;;;1.10;;
21527;SDS011;10925;49.102;-0.370;2022-08-05T14:47:36;6.57;;;1.05;;
21527;SDS011;10925;49.102;-0.370;2022-08-05T14:50:23;4.43;;;0.90;;
21527;SDS011;10925;49.102;-0.370;2022-08-05T14:52:48;6.35;;;1.20;;
21527;SDS011;10925;49.102;-0.370;2022-08-05T14:55:24;4.95;;;1.10;;
21527;SDS011;10925;49.102;-0.370;2022-08-05T14:57:50;2.65;;;0.70;;
21527;SDS011;10925;49.102;-0.370;2022-08-05T15:00:16;2.40;;;0.77;;
21527;SDS011;10925;49.102;-0.370;2022-08-05T15:02:45;4.00;;;0.80;;
21527;SDS011;10925;49.102;-0.370;2022-08-05T15:05:11;8.35;;;1.00;;
21527;SDS011;10925;49.102;-0.370;2022-08-05T15:07:38;4.00;;;1.25;;
21527;SDS011;10925;49.102;-0.370;2022-08-05T15:10:24;6.70;;;1.00;;
21527;SDS011;10925;49.102;-0.370;2022-08-05T15:12:50;5.47;;;1.00;;
21527;SDS011;10925;49.102;-0.370;2022-08-05T15:18:32;4.25;;;1.05;;
21527;SDS011;10925;49.102;-0.370;2022-08-05T15:20:59;4.50;;;1.10;;
21527;SDS011;10925;49.102;-0.370;2022-08-05T15:23:25;5.95;;;1.20;;
21527;SDS011;10925;49.102;-0.370;2022-08-05T15:25:50;4.47;;;0.85;;
21527;SDS011;10925;49.102;-0.370;2022-08-05T15:28:16;3.35;;;0.95;;
21527;SDS011;10925;49.102;-0.370;2022-08-05T15:30:44;3.00;;;0.82;;
21527;SDS011;10925;49.102;-0.370;2022-08-05T15:33:12;4.60;;;1.20;;